Portada
METAR-TAF:

METAR-TAF

Aeroports :

Northeast Alabama Regional Airport

Gadsden, Alabama, Estats Units d'Amèrica

latitud: 33-58N, longitud: 086-05W, altitud: 173 m

Observació

L'informe es va fer fa 1 hora i 4 minuts, a les 04:56 UTC
Vent calma
Temperatura 15°C
Humitat 82%
Pressió 1021 hPa
Visibilitat: 16.1 km
Cel clar

METAR: KGAD 300456Z AUTO 00000KT 10SM CLR 15/12 A3016 RMK AO2 SLP215 T01500117

Hora: 01:00 (06:00 UTC)


TAF: manca

Observacions i pronòstics meteorològics de més de 4000 aeroports (METAR i TAF).

Les estacions disponibles són els punts grocs i vermells al mapa.

Posi el ratolí al punt desitjat per veure el nom de l'estació.

Feu clic per veure les observacions i els pronòstics meteorològics.

Per canviar el mapa: feu clic els botons verds amb una creu de color negre per apropar; al botó verd amb un guió per allunyar la imatge; o en les fletxes verdes per a mapes adjacents.


METAR-TAF: